sensor_id;sensor_type;location;lat;lon;timestamp;P1;durP1;ratioP1;P2;durP2;ratioP2
42690;SDS011;28306;55.744;37.578;2022-08-05T00:00:10;14.00;;;9.23;;
42690;SDS011;28306;55.744;37.578;2022-08-05T00:02:36;12.13;;;9.65;;
42690;SDS011;28306;55.744;37.578;2022-08-05T00:05:02;14.27;;;10.07;;
42690;SDS011;28306;55.744;37.578;2022-08-05T00:07:28;14.77;;;10.00;;
42690;SDS011;28306;55.744;37.578;2022-08-05T00:09:54;14.68;;;10.10;;
42690;SDS011;28306;55.744;37.578;2022-08-05T00:12:19;12.88;;;9.32;;
42690;SDS011;28306;55.744;37.578;2022-08-05T00:14:45;18.10;;;10.32;;
42690;SDS011;28306;55.744;37.578;2022-08-05T00:17:11;12.43;;;9.40;;
42690;SDS011;28306;55.744;37.578;2022-08-05T00:19:36;13.50;;;9.50;;
42690;SDS011;28306;55.744;37.578;2022-08-05T00:22:02;12.77;;;9.75;;
42690;SDS011;28306;55.744;37.578;2022-08-05T00:24:28;12.35;;;9.43;;
42690;SDS011;28306;55.744;37.578;2022-08-05T00:26:54;14.10;;;10.43;;
42690;SDS011;28306;55.744;37.578;2022-08-05T00:29:20;15.10;;;9.82;;
42690;SDS011;28306;55.744;37.578;2022-08-05T00:31:46;15.88;;;10.50;;
42690;SDS011;28306;55.744;37.578;2022-08-05T00:34:12;14.55;;;10.40;;
42690;SDS011;28306;55.744;37.578;2022-08-05T00:36:37;12.77;;;9.80;;
42690;SDS011;28306;55.744;37.578;2022-08-05T00:39:03;15.02;;;10.52;;
42690;SDS011;28306;55.744;37.578;2022-08-05T00:41:29;13.65;;;9.48;;
42690;SDS011;28306;55.744;37.578;2022-08-05T00:43:56;14.57;;;9.85;;
42690;SDS011;28306;55.744;37.578;2022-08-05T00:46:22;18.15;;;10.63;;
42690;SDS011;28306;55.744;37.578;2022-08-05T00:48:48;11.93;;;9.55;;
42690;SDS011;28306;55.744;37.578;2022-08-05T00:51:14;13.60;;;9.20;;
42690;SDS011;28306;55.744;37.578;2022-08-05T00:53:40;15.57;;;10.63;;
42690;SDS011;28306;55.744;37.578;2022-08-05T00:56:05;12.90;;;10.20;;
42690;SDS011;28306;55.744;37.578;2022-08-05T00:58:32;15.85;;;10.45;;
42690;SDS011;28306;55.744;37.578;2022-08-05T01:00:57;13.95;;;10.52;;
42690;SDS011;28306;55.744;37.578;2022-08-05T01:03:23;11.95;;;9.63;;
42690;SDS011;28306;55.744;37.578;2022-08-05T01:05:50;12.48;;;10.32;;
42690;SDS011;28306;55.744;37.578;2022-08-05T01:08:17;12.82;;;9.40;;
42690;SDS011;28306;55.744;37.578;2022-08-05T01:10:46;12.32;;;9.65;;
42690;SDS011;28306;55.744;37.578;2022-08-05T01:13:20;12.57;;;10.03;;
42690;SDS011;28306;55.744;37.578;2022-08-05T01:15:58;15.15;;;11.02;;
42690;SDS011;28306;55.744;37.578;2022-08-05T01:18:28;13.48;;;10.15;;
42690;SDS011;28306;55.744;37.578;2022-08-05T01:23:43;11.75;;;9.98;;
42690;SDS011;28306;55.744;37.578;2022-08-05T01:29:15;13.18;;;9.93;;
42690;SDS011;28306;55.744;37.578;2022-08-05T01:31:53;14.85;;;10.20;;
42690;SDS011;28306;55.744;37.578;2022-08-05T01:34:22;12.38;;;9.90;;
42690;SDS011;28306;55.744;37.578;2022-08-05T01:37:05;15.70;;;11.07;;
42690;SDS011;28306;55.744;37.578;2022-08-05T01:39:35;13.43;;;10.77;;
42690;SDS011;28306;55.744;37.578;2022-08-05T01:42:04;15.13;;;10.98;;
42690;SDS011;28306;55.744;37.578;2022-08-05T01:44:33;12.90;;;10.35;;
42690;SDS011;28306;55.744;37.578;2022-08-05T01:47:01;14.13;;;9.90;;
42690;SDS011;28306;55.744;37.578;2022-08-05T01:49:27;13.07;;;10.20;;
42690;SDS011;28306;55.744;37.578;2022-08-05T01:51:56;15.18;;;9.93;;
42690;SDS011;28306;55.744;37.578;2022-08-05T01:54:26;14.13;;;10.52;;
42690;SDS011;28306;55.744;37.578;2022-08-05T01:57:04;18.35;;;9.88;;
42690;SDS011;28306;55.744;37.578;2022-08-05T01:59:32;14.18;;;10.05;;
42690;SDS011;28306;55.744;37.578;2022-08-05T02:01:59;16.48;;;10.30;;
42690;SDS011;28306;55.744;37.578;2022-08-05T02:04:27;12.18;;;9.77;;
42690;SDS011;28306;55.744;37.578;2022-08-05T02:06:56;13.07;;;9.77;;
42690;SDS011;28306;55.744;37.578;2022-08-05T02:09:23;13.95;;;10.15;;
42690;SDS011;28306;55.744;37.578;2022-08-05T02:14:33;13.23;;;9.85;;
42690;SDS011;28306;55.744;37.578;2022-08-05T02:17:10;14.60;;;9.82;;
42690;SDS011;28306;55.744;37.578;2022-08-05T02:19:51;13.35;;;10.40;;
42690;SDS011;28306;55.744;37.578;2022-08-05T02:22:24;13.07;;;9.68;;
42690;SDS011;28306;55.744;37.578;2022-08-05T02:24:57;14.82;;;10.13;;
42690;SDS011;28306;55.744;37.578;2022-08-05T02:27:29;11.45;;;9.73;;
42690;SDS011;28306;55.744;37.578;2022-08-05T02:30:00;14.65;;;10.57;;
42690;SDS011;28306;55.744;37.578;2022-08-05T02:32:27;13.68;;;10.65;;
42690;SDS011;28306;55.744;37.578;2022-08-05T02:34:58;16.73;;;10.25;;
42690;SDS011;28306;55.744;37.578;2022-08-05T02:37:25;12.43;;;9.85;;
42690;SDS011;28306;55.744;37.578;2022-08-05T02:39:52;17.02;;;10.27;;
42690;SDS011;28306;55.744;37.578;2022-08-05T02:42:19;14.07;;;10.05;;
42690;SDS011;28306;55.744;37.578;2022-08-05T02:44:46;12.35;;;10.05;;
42690;SDS011;28306;55.744;37.578;2022-08-05T02:47:12;12.40;;;9.07;;
42690;SDS011;28306;55.744;37.578;2022-08-05T02:49:40;12.90;;;9.63;;
42690;SDS011;28306;55.744;37.578;2022-08-05T02:52:09;13.90;;;10.10;;
42690;SDS011;28306;55.744;37.578;2022-08-05T02:54:38;12.85;;;10.18;;
42690;SDS011;28306;55.744;37.578;2022-08-05T02:57:07;13.90;;;10.40;;
42690;SDS011;28306;55.744;37.578;2022-08-05T02:59:36;11.80;;;9.77;;
42690;SDS011;28306;55.744;37.578;2022-08-05T03:02:02;11.98;;;9.77;;
42690;SDS011;28306;55.744;37.578;2022-08-05T03:04:28;11.07;;;8.93;;
42690;SDS011;28306;55.744;37.578;2022-08-05T03:06:55;11.18;;;9.77;;
42690;SDS011;28306;55.744;37.578;2022-08-05T03:09:22;14.32;;;10.25;;
42690;SDS011;28306;55.744;37.578;2022-08-05T03:11:48;14.07;;;10.45;;
42690;SDS011;28306;55.744;37.578;2022-08-05T03:14:15;13.70;;;9.90;;
42690;SDS011;28306;55.744;37.578;2022-08-05T03:16:41;13.15;;;10.75;;
42690;SDS011;28306;55.744;37.578;2022-08-05T03:19:06;16.27;;;11.02;;
42690;SDS011;28306;55.744;37.578;2022-08-05T03:21:32;13.30;;;10.07;;
42690;SDS011;28306;55.744;37.578;2022-08-05T03:23:58;14.10;;;10.98;;
42690;SDS011;28306;55.744;37.578;2022-08-05T03:26:24;15.38;;;10.48;;
42690;SDS011;28306;55.744;37.578;2022-08-05T03:28:51;14.57;;;10.77;;
42690;SDS011;28306;55.744;37.578;2022-08-05T03:31:16;13.75;;;9.93;;
42690;SDS011;28306;55.744;37.578;2022-08-05T03:33:43;11.38;;;10.18;;
42690;SDS011;28306;55.744;37.578;2022-08-05T03:36:09;12.10;;;10.43;;
42690;SDS011;28306;55.744;37.578;2022-08-05T03:38:40;16.08;;;11.15;;
42690;SDS011;28306;55.744;37.578;2022-08-05T03:41:07;14.63;;;9.40;;
42690;SDS011;28306;55.744;37.578;2022-08-05T03:43:33;12.85;;;10.25;;
42690;SDS011;28306;55.744;37.578;2022-08-05T03:45:59;11.63;;;10.02;;
42690;SDS011;28306;55.744;37.578;2022-08-05T03:48:25;14.93;;;10.25;;
42690;SDS011;28306;55.744;37.578;2022-08-05T03:56:37;13.82;;;10.38;;
42690;SDS011;28306;55.744;37.578;2022-08-05T03:59:10;15.35;;;11.07;;
42690;SDS011;28306;55.744;37.578;2022-08-05T04:01:42;11.95;;;9.68;;
42690;SDS011;28306;55.744;37.578;2022-08-05T04:04:10;14.10;;;11.18;;
42690;SDS011;28306;55.744;37.578;2022-08-05T04:06:37;13.35;;;10.73;;
42690;SDS011;28306;55.744;37.578;2022-08-05T04:09:04;12.52;;;10.20;;
42690;SDS011;28306;55.744;37.578;2022-08-05T04:11:31;12.85;;;9.93;;
42690;SDS011;28306;55.744;37.578;2022-08-05T04:13:58;12.30;;;10.48;;
42690;SDS011;28306;55.744;37.578;2022-08-05T04:16:24;13.07;;;10.95;;
42690;SDS011;28306;55.744;37.578;2022-08-05T04:18:51;16.02;;;10.80;;
42690;SDS011;28306;55.744;37.578;2022-08-05T04:21:17;13.82;;;10.05;;
42690;SDS011;28306;55.744;37.578;2022-08-05T04:23:43;13.50;;;10.30;;
42690;SDS011;28306;55.744;37.578;2022-08-05T04:26:08;13.30;;;10.15;;
42690;SDS011;28306;55.744;37.578;2022-08-05T04:28:34;14.18;;;9.93;;
42690;SDS011;28306;55.744;37.578;2022-08-05T04:31:00;17.23;;;10.75;;
42690;SDS011;28306;55.744;37.578;2022-08-05T04:33:26;15.13;;;10.35;;
42690;SDS011;28306;55.744;37.578;2022-08-05T04:35:52;14.30;;;10.07;;
42690;SDS011;28306;55.744;37.578;2022-08-05T04:38:18;19.02;;;11.48;;
42690;SDS011;28306;55.744;37.578;2022-08-05T04:40:43;16.42;;;10.20;;
42690;SDS011;28306;55.744;37.578;2022-08-05T04:43:09;11.73;;;9.98;;
42690;SDS011;28306;55.744;37.578;2022-08-05T04:45:34;13.68;;;11.00;;
42690;SDS011;28306;55.744;37.578;2022-08-05T04:48:04;16.23;;;10.55;;
42690;SDS011;28306;55.744;37.578;2022-08-05T04:50:40;12.07;;;9.77;;
42690;SDS011;28306;55.744;37.578;2022-08-05T04:53:11;14.25;;;11.27;;
42690;SDS011;28306;55.744;37.578;2022-08-05T04:55:38;16.77;;;10.45;;
42690;SDS011;28306;55.744;37.578;2022-08-05T04:58:05;13.57;;;10.13;;
42690;SDS011;28306;55.744;37.578;2022-08-05T05:00:32;12.93;;;10.13;;
42690;SDS011;28306;55.744;37.578;2022-08-05T05:02:59;12.85;;;10.25;;
42690;SDS011;28306;55.744;37.578;2022-08-05T05:05:25;13.73;;;10.25;;
42690;SDS011;28306;55.744;37.578;2022-08-05T05:07:51;13.98;;;10.88;;
42690;SDS011;28306;55.744;37.578;2022-08-05T05:10:18;15.68;;;10.05;;
42690;SDS011;28306;55.744;37.578;2022-08-05T05:12:43;12.73;;;10.18;;
42690;SDS011;28306;55.744;37.578;2022-08-05T05:15:09;13.55;;;9.43;;
42690;SDS011;28306;55.744;37.578;2022-08-05T05:17:36;11.38;;;9.48;;
42690;SDS011;28306;55.744;37.578;2022-08-05T05:20:02;15.35;;;9.98;;
42690;SDS011;28306;55.744;37.578;2022-08-05T05:22:29;14.13;;;10.57;;
42690;SDS011;28306;55.744;37.578;2022-08-05T05:24:55;14.95;;;9.90;;
42690;SDS011;28306;55.744;37.578;2022-08-05T05:27:21;16.42;;;10.60;;
42690;SDS011;28306;55.744;37.578;2022-08-05T05:29:46;14.77;;;10.10;;
42690;SDS011;28306;55.744;37.578;2022-08-05T05:32:12;17.80;;;10.18;;
42690;SDS011;28306;55.744;37.578;2022-08-05T05:34:37;11.52;;;10.25;;
42690;SDS011;28306;55.744;37.578;2022-08-05T05:37:03;15.48;;;10.20;;
42690;SDS011;28306;55.744;37.578;2022-08-05T05:39:29;13.50;;;9.40;;
42690;SDS011;28306;55.744;37.578;2022-08-05T05:41:54;12.35;;;9.50;;
42690;SDS011;28306;55.744;37.578;2022-08-05T05:44:20;12.65;;;9.20;;
42690;SDS011;28306;55.744;37.578;2022-08-05T05:46:46;14.07;;;9.98;;
42690;SDS011;28306;55.744;37.578;2022-08-05T05:49:11;11.90;;;9.63;;
42690;SDS011;28306;55.744;37.578;2022-08-05T05:51:37;14.35;;;9.95;;
42690;SDS011;28306;55.744;37.578;2022-08-05T05:54:02;17.83;;;9.55;;
42690;SDS011;28306;55.744;37.578;2022-08-05T05:56:29;13.02;;;8.55;;
42690;SDS011;28306;55.744;37.578;2022-08-05T05:58:55;14.35;;;9.20;;
42690;SDS011;28306;55.744;37.578;2022-08-05T06:01:21;14.82;;;8.70;;
42690;SDS011;28306;55.744;37.578;2022-08-05T06:03:47;11.13;;;8.68;;
42690;SDS011;28306;55.744;37.578;2022-08-05T06:06:12;12.48;;;9.20;;
42690;SDS011;28306;55.744;37.578;2022-08-05T06:08:38;16.08;;;9.68;;
42690;SDS011;28306;55.744;37.578;2022-08-05T06:11:04;13.43;;;8.18;;
42690;SDS011;28306;55.744;37.578;2022-08-05T06:13:30;12.52;;;7.88;;
42690;SDS011;28306;55.744;37.578;2022-08-05T06:15:56;13.88;;;8.30;;
42690;SDS011;28306;55.744;37.578;2022-08-05T06:18:22;14.60;;;8.68;;
42690;SDS011;28306;55.744;37.578;2022-08-05T06:20:47;13.88;;;8.50;;
42690;SDS011;28306;55.744;37.578;2022-08-05T06:23:13;15.13;;;9.10;;
42690;SDS011;28306;55.744;37.578;2022-08-05T06:25:38;15.65;;;8.48;;
42690;SDS011;28306;55.744;37.578;2022-08-05T06:28:04;13.55;;;8.02;;
42690;SDS011;28306;55.744;37.578;2022-08-05T06:30:30;10.32;;;8.05;;
42690;SDS011;28306;55.744;37.578;2022-08-05T06:32:55;13.35;;;8.15;;
42690;SDS011;28306;55.744;37.578;2022-08-05T06:35:21;10.48;;;8.50;;
42690;SDS011;28306;55.744;37.578;2022-08-05T06:37:47;12.75;;;8.50;;
42690;SDS011;28306;55.744;37.578;2022-08-05T06:40:13;13.80;;;8.10;;
42690;SDS011;28306;55.744;37.578;2022-08-05T06:42:39;13.40;;;8.05;;
42690;SDS011;28306;55.744;37.578;2022-08-05T06:45:04;10.13;;;7.20;;
42690;SDS011;28306;55.744;37.578;2022-08-05T06:47:31;11.25;;;7.95;;
42690;SDS011;28306;55.744;37.578;2022-08-05T06:49:56;15.60;;;8.25;;
42690;SDS011;28306;55.744;37.578;2022-08-05T06:52:22;12.60;;;8.20;;
42690;SDS011;28306;55.744;37.578;2022-08-05T06:54:47;13.18;;;7.78;;
42690;SDS011;28306;55.744;37.578;2022-08-05T06:57:13;12.55;;;7.95;;
42690;SDS011;28306;55.744;37.578;2022-08-05T06:59:40;10.93;;;7.97;;
42690;SDS011;28306;55.744;37.578;2022-08-05T07:02:06;14.15;;;8.27;;
42690;SDS011;28306;55.744;37.578;2022-08-05T07:04:32;13.50;;;7.60;;
42690;SDS011;28306;55.744;37.578;2022-08-05T07:06:58;11.68;;;7.13;;
42690;SDS011;28306;55.744;37.578;2022-08-05T07:09:23;14.38;;;7.82;;
42690;SDS011;28306;55.744;37.578;2022-08-05T07:11:49;18.73;;;8.52;;
42690;SDS011;28306;55.744;37.578;2022-08-05T07:14:15;16.10;;;7.55;;
42690;SDS011;28306;55.744;37.578;2022-08-05T07:17:00;11.77;;;7.93;;
42690;SDS011;28306;55.744;37.578;2022-08-05T07:19:26;16.42;;;7.60;;
42690;SDS011;28306;55.744;37.578;2022-08-05T07:21:53;16.15;;;8.15;;
42690;SDS011;28306;55.744;37.578;2022-08-05T07:24:20;12.25;;;7.53;;
42690;SDS011;28306;55.744;37.578;2022-08-05T07:26:46;14.38;;;7.95;;
42690;SDS011;28306;55.744;37.578;2022-08-05T07:29:12;13.10;;;7.43;;
42690;SDS011;28306;55.744;37.578;2022-08-05T07:31:38;13.63;;;7.40;;
42690;SDS011;28306;55.744;37.578;2022-08-05T07:34:04;11.45;;;7.50;;
42690;SDS011;28306;55.744;37.578;2022-08-05T07:36:31;14.25;;;7.70;;
42690;SDS011;28306;55.744;37.578;2022-08-05T07:39:00;13.48;;;8.02;;
42690;SDS011;28306;55.744;37.578;2022-08-05T07:41:28;9.95;;;6.80;;
42690;SDS011;28306;55.744;37.578;2022-08-05T07:43:55;11.05;;;7.60;;
42690;SDS011;28306;55.744;37.578;2022-08-05T07:46:21;10.43;;;7.50;;
42690;SDS011;28306;55.744;37.578;2022-08-05T07:48:48;15.40;;;7.05;;
42690;SDS011;28306;55.744;37.578;2022-08-05T07:51:13;13.57;;;6.90;;
42690;SDS011;28306;55.744;37.578;2022-08-05T07:53:40;9.85;;;6.65;;
42690;SDS011;28306;55.744;37.578;2022-08-05T07:56:06;10.77;;;6.90;;
42690;SDS011;28306;55.744;37.578;2022-08-05T07:58:32;11.10;;;6.90;;
42690;SDS011;28306;55.744;37.578;2022-08-05T08:00:58;11.57;;;7.22;;
42690;SDS011;28306;55.744;37.578;2022-08-05T08:03:23;12.15;;;7.07;;
42690;SDS011;28306;55.744;37.578;2022-08-05T08:05:49;8.27;;;6.35;;
42690;SDS011;28306;55.744;37.578;2022-08-05T08:08:17;10.85;;;6.38;;
42690;SDS011;28306;55.744;37.578;2022-08-05T08:10:43;11.98;;;7.60;;
42690;SDS011;28306;55.744;37.578;2022-08-05T08:13:09;9.07;;;6.28;;
42690;SDS011;28306;55.744;37.578;2022-08-05T08:15:35;13.15;;;6.88;;
42690;SDS011;28306;55.744;37.578;2022-08-05T08:18:01;10.15;;;6.95;;
42690;SDS011;28306;55.744;37.578;2022-08-05T08:20:27;10.02;;;6.38;;
42690;SDS011;28306;55.744;37.578;2022-08-05T08:22:56;13.43;;;7.13;;
42690;SDS011;28306;55.744;37.578;2022-08-05T08:25:25;11.43;;;6.28;;
42690;SDS011;28306;55.744;37.578;2022-08-05T08:27:52;11.30;;;6.20;;
42690;SDS011;28306;55.744;37.578;2022-08-05T08:30:19;11.75;;;6.47;;
42690;SDS011;28306;55.744;37.578;2022-08-05T08:32:44;8.95;;;5.68;;
42690;SDS011;28306;55.744;37.578;2022-08-05T08:35:10;10.43;;;5.93;;
42690;SDS011;28306;55.744;37.578;2022-08-05T08:37:36;10.52;;;5.80;;
42690;SDS011;28306;55.744;37.578;2022-08-05T08:40:02;8.48;;;5.65;;
42690;SDS011;28306;55.744;37.578;2022-08-05T08:42:28;9.98;;;5.80;;
42690;SDS011;28306;55.744;37.578;2022-08-05T08:44:55;10.65;;;5.20;;
42690;SDS011;28306;55.744;37.578;2022-08-05T08:47:22;10.85;;;5.90;;
42690;SDS011;28306;55.744;37.578;2022-08-05T08:49:50;7.85;;;5.00;;
42690;SDS011;28306;55.744;37.578;2022-08-05T08:52:20;7.57;;;5.60;;
42690;SDS011;28306;55.744;37.578;2022-08-05T08:54:50;9.45;;;5.18;;
42690;SDS011;28306;55.744;37.578;2022-08-05T08:57:17;7.97;;;5.13;;
42690;SDS011;28306;55.744;37.578;2022-08-05T08:59:43;11.25;;;5.13;;
42690;SDS011;28306;55.744;37.578;2022-08-05T09:02:09;8.80;;;5.00;;
42690;SDS011;28306;55.744;37.578;2022-08-05T09:04:36;9.98;;;5.35;;
42690;SDS011;28306;55.744;37.578;2022-08-05T09:07:05;11.40;;;5.07;;
42690;SDS011;28306;55.744;37.578;2022-08-05T09:09:32;7.95;;;4.80;;
42690;SDS011;28306;55.744;37.578;2022-08-05T09:11:59;7.38;;;5.45;;
42690;SDS011;28306;55.744;37.578;2022-08-05T09:14:25;10.18;;;5.07;;
42690;SDS011;28306;55.744;37.578;2022-08-05T09:16:52;6.78;;;4.90;;
42690;SDS011;28306;55.744;37.578;2022-08-05T09:19:17;11.32;;;4.97;;
42690;SDS011;28306;55.744;37.578;2022-08-05T09:21:43;8.32;;;4.90;;
42690;SDS011;28306;55.744;37.578;2022-08-05T09:24:09;10.20;;;5.45;;
42690;SDS011;28306;55.744;37.578;2022-08-05T09:26:37;14.45;;;5.25;;
42690;SDS011;28306;55.744;37.578;2022-08-05T09:29:04;7.05;;;5.13;;
42690;SDS011;28306;55.744;37.578;2022-08-05T09:31:32;7.80;;;5.05;;
42690;SDS011;28306;55.744;37.578;2022-08-05T09:33:59;8.32;;;4.90;;
42690;SDS011;28306;55.744;37.578;2022-08-05T09:36:40;12.43;;;5.25;;
42690;SDS011;28306;55.744;37.578;2022-08-05T09:39:17;8.82;;;5.00;;
42690;SDS011;28306;55.744;37.578;2022-08-05T09:41:53;10.25;;;5.15;;
42690;SDS011;28306;55.744;37.578;2022-08-05T09:44:43;8.05;;;5.32;;
42690;SDS011;28306;55.744;37.578;2022-08-05T09:47:20;12.70;;;5.10;;
42690;SDS011;28306;55.744;37.578;2022-08-05T09:54:51;11.10;;;5.03;;
42690;SDS011;28306;55.744;37.578;2022-08-05T09:57:40;10.55;;;5.03;;
42690;SDS011;28306;55.744;37.578;2022-08-05T10:00:10;9.45;;;5.85;;
42690;SDS011;28306;55.744;37.578;2022-08-05T10:02:38;12.80;;;5.43;;
42690;SDS011;28306;55.744;37.578;2022-08-05T10:05:16;10.50;;;4.97;;
42690;SDS011;28306;55.744;37.578;2022-08-05T10:07:44;9.23;;;4.60;;
42690;SDS011;28306;55.744;37.578;2022-08-05T10:10:10;13.13;;;6.25;;
42690;SDS011;28306;55.744;37.578;2022-08-05T10:12:40;12.82;;;4.57;;
42690;SDS011;28306;55.744;37.578;2022-08-05T10:15:26;9.13;;;5.15;;
42690;SDS011;28306;55.744;37.578;2022-08-05T10:23:13;9.13;;;5.07;;
42690;SDS011;28306;55.744;37.578;2022-08-05T10:25:45;8.45;;;5.25;;
42690;SDS011;28306;55.744;37.578;2022-08-05T10:28:11;9.75;;;5.40;;
42690;SDS011;28306;55.744;37.578;2022-08-05T10:30:38;5.88;;;4.93;;
42690;SDS011;28306;55.744;37.578;2022-08-05T10:33:04;9.25;;;5.85;;
42690;SDS011;28306;55.744;37.578;2022-08-05T10:35:31;8.85;;;5.45;;
42690;SDS011;28306;55.744;37.578;2022-08-05T10:37:57;8.07;;;4.95;;
42690;SDS011;28306;55.744;37.578;2022-08-05T10:42:50;10.57;;;4.80;;
42690;SDS011;28306;55.744;37.578;2022-08-05T10:45:25;9.85;;;5.63;;
42690;SDS011;28306;55.744;37.578;2022-08-05T10:47:52;7.00;;;4.97;;
42690;SDS011;28306;55.744;37.578;2022-08-05T10:50:18;8.52;;;5.43;;
42690;SDS011;28306;55.744;37.578;2022-08-05T10:55:32;8.95;;;4.95;;
42690;SDS011;28306;55.744;37.578;2022-08-05T10:58:19;7.82;;;5.30;;
42690;SDS011;28306;55.744;37.578;2022-08-05T11:00:45;7.50;;;5.28;;
42690;SDS011;28306;55.744;37.578;2022-08-05T11:03:12;9.55;;;5.38;;
42690;SDS011;28306;55.744;37.578;2022-08-05T11:05:38;7.53;;;5.38;;
42690;SDS011;28306;55.744;37.578;2022-08-05T11:08:06;13.80;;;5.97;;
42690;SDS011;28306;55.744;37.578;2022-08-05T11:10:34;15.57;;;5.63;;
42690;SDS011;28306;55.744;37.578;2022-08-05T11:13:02;6.32;;;5.03;;
42690;SDS011;28306;55.744;37.578;2022-08-05T11:15:30;6.38;;;5.20;;
42690;SDS011;28306;55.744;37.578;2022-08-05T11:20:51;9.45;;;5.38;;
42690;SDS011;28306;55.744;37.578;2022-08-05T11:28:49;9.05;;;6.00;;
42690;SDS011;28306;55.744;37.578;2022-08-05T11:31:20;10.82;;;5.80;;
42690;SDS011;28306;55.744;37.578;2022-08-05T11:36:16;22.83;;;6.28;;
42690;SDS011;28306;55.744;37.578;2022-08-05T11:41:23;11.00;;;6.35;;
42690;SDS011;28306;55.744;37.578;2022-08-05T11:46:31;9.87;;;6.10;;
42690;SDS011;28306;55.744;37.578;2022-08-05T11:49:06;10.60;;;6.72;;
42690;SDS011;28306;55.744;37.578;2022-08-05T11:51:35;15.13;;;6.65;;
42690;SDS011;28306;55.744;37.578;2022-08-05T11:54:01;8.98;;;6.45;;
42690;SDS011;28306;55.744;37.578;2022-08-05T11:56:46;8.38;;;5.82;;
42690;SDS011;28306;55.744;37.578;2022-08-05T11:59:17;10.65;;;5.50;;
42690;SDS011;28306;55.744;37.578;2022-08-05T12:01:53;10.68;;;6.60;;
42690;SDS011;28306;55.744;37.578;2022-08-05T12:04:19;16.35;;;6.53;;
42690;SDS011;28306;55.744;37.578;2022-08-05T12:06:45;14.35;;;6.20;;
42690;SDS011;28306;55.744;37.578;2022-08-05T12:09:11;11.60;;;6.18;;
42690;SDS011;28306;55.744;37.578;2022-08-05T12:11:42;10.68;;;5.85;;
42690;SDS011;28306;55.744;37.578;2022-08-05T12:14:08;9.85;;;5.80;;
42690;SDS011;28306;55.744;37.578;2022-08-05T12:16:35;9.60;;;6.00;;
42690;SDS011;28306;55.744;37.578;2022-08-05T12:19:05;10.52;;;6.43;;
42690;SDS011;28306;55.744;37.578;2022-08-05T12:21:34;7.63;;;6.10;;
42690;SDS011;28306;55.744;37.578;2022-08-05T12:24:02;14.93;;;6.53;;
42690;SDS011;28306;55.744;37.578;2022-08-05T12:29:04;8.82;;;6.13;;
42690;SDS011;28306;55.744;37.578;2022-08-05T12:31:32;11.05;;;5.75;;
42690;SDS011;28306;55.744;37.578;2022-08-05T12:34:02;7.15;;;5.78;;
42690;SDS011;28306;55.744;37.578;2022-08-05T12:36:30;9.73;;;6.65;;
42690;SDS011;28306;55.744;37.578;2022-08-05T12:38:57;7.65;;;5.95;;
42690;SDS011;28306;55.744;37.578;2022-08-05T12:41:27;9.75;;;6.03;;
42690;SDS011;28306;55.744;37.578;2022-08-05T12:43:56;11.93;;;6.15;;
42690;SDS011;28306;55.744;37.578;2022-08-05T12:46:26;9.20;;;5.82;;
42690;SDS011;28306;55.744;37.578;2022-08-05T12:51:43;11.00;;;6.22;;
42690;SDS011;28306;55.744;37.578;2022-08-05T12:56:49;7.65;;;5.85;;
42690;SDS011;28306;55.744;37.578;2022-08-05T12:59:18;9.50;;;5.93;;
42690;SDS011;28306;55.744;37.578;2022-08-05T13:01:55;8.73;;;5.85;;
42690;SDS011;28306;55.744;37.578;2022-08-05T13:04:25;8.13;;;5.47;;
42690;SDS011;28306;55.744;37.578;2022-08-05T13:06:54;8.45;;;5.95;;
42690;SDS011;28306;55.744;37.578;2022-08-05T13:09:23;8.75;;;6.22;;
42690;SDS011;28306;55.744;37.578;2022-08-05T13:11:49;6.43;;;5.60;;
42690;SDS011;28306;55.744;37.578;2022-08-05T13:14:16;10.85;;;5.97;;
42690;SDS011;28306;55.744;37.578;2022-08-05T13:16:52;6.53;;;5.65;;
42690;SDS011;28306;55.744;37.578;2022-08-05T13:19:21;6.82;;;5.05;;
42690;SDS011;28306;55.744;37.578;2022-08-05T13:21:47;10.05;;;5.47;;
42690;SDS011;28306;55.744;37.578;2022-08-05T13:24:14;6.45;;;5.32;;
42690;SDS011;28306;55.744;37.578;2022-08-05T13:26:43;6.38;;;5.07;;
42690;SDS011;28306;55.744;37.578;2022-08-05T13:29:09;13.52;;;5.28;;
42690;SDS011;28306;55.744;37.578;2022-08-05T13:31:35;6.53;;;5.50;;
42690;SDS011;28306;55.744;37.578;2022-08-05T13:34:01;8.45;;;5.50;;
42690;SDS011;28306;55.744;37.578;2022-08-05T13:36:27;6.40;;;5.40;;
42690;SDS011;28306;55.744;37.578;2022-08-05T13:38:52;9.40;;;5.40;;
42690;SDS011;28306;55.744;37.578;2022-08-05T13:41:18;18.55;;;5.80;;
42690;SDS011;28306;55.744;37.578;2022-08-05T13:43:44;6.00;;;5.13;;
42690;SDS011;28306;55.744;37.578;2022-08-05T13:46:10;7.75;;;5.03;;
42690;SDS011;28306;55.744;37.578;2022-08-05T13:48:37;6.15;;;4.60;;
42690;SDS011;28306;55.744;37.578;2022-08-05T13:51:06;5.97;;;4.65;;
42690;SDS011;28306;55.744;37.578;2022-08-05T13:53:37;6.18;;;4.95;;
42690;SDS011;28306;55.744;37.578;2022-08-05T13:56:03;6.80;;;5.00;;
42690;SDS011;28306;55.744;37.578;2022-08-05T13:58:29;7.95;;;5.13;;
42690;SDS011;28306;55.744;37.578;2022-08-05T14:00:55;7.53;;;4.18;;
42690;SDS011;28306;55.744;37.578;2022-08-05T14:03:21;5.55;;;4.60;;
42690;SDS011;28306;55.744;37.578;2022-08-05T14:05:47;6.82;;;5.15;;
42690;SDS011;28306;55.744;37.578;2022-08-05T14:08:13;4.90;;;4.38;;
42690;SDS011;28306;55.744;37.578;2022-08-05T14:10:39;6.65;;;4.55;;
42690;SDS011;28306;55.744;37.578;2022-08-05T14:13:05;6.97;;;4.88;;
42690;SDS011;28306;55.744;37.578;2022-08-05T14:15:32;6.25;;;4.90;;
42690;SDS011;28306;55.744;37.578;2022-08-05T14:17:58;10.02;;;4.97;;
42690;SDS011;28306;55.744;37.578;2022-08-05T14:20:24;7.40;;;4.53;;
42690;SDS011;28306;55.744;37.578;2022-08-05T14:22:50;5.25;;;4.47;;
42690;SDS011;28306;55.744;37.578;2022-08-05T14:25:15;6.40;;;4.60;;
42690;SDS011;28306;55.744;37.578;2022-08-05T14:27:43;6.20;;;4.65;;
42690;SDS011;28306;55.744;37.578;2022-08-05T14:30:08;8.32;;;4.85;;
42690;SDS011;28306;55.744;37.578;2022-08-05T14:32:34;8.07;;;4.85;;
42690;SDS011;28306;55.744;37.578;2022-08-05T14:35:01;5.47;;;4.13;;
42690;SDS011;28306;55.744;37.578;2022-08-05T14:37:28;7.25;;;4.68;;
42690;SDS011;28306;55.744;37.578;2022-08-05T14:39:54;6.05;;;5.13;;
42690;SDS011;28306;55.744;37.578;2022-08-05T14:42:19;8.95;;;4.75;;
42690;SDS011;28306;55.744;37.578;2022-08-05T14:44:46;6.10;;;4.57;;
42690;SDS011;28306;55.744;37.578;2022-08-05T14:47:12;6.40;;;4.40;;
42690;SDS011;28306;55.744;37.578;2022-08-05T14:49:38;5.93;;;4.80;;
42690;SDS011;28306;55.744;37.578;2022-08-05T14:52:03;7.80;;;4.30;;
42690;SDS011;28306;55.744;37.578;2022-08-05T14:54:29;5.68;;;4.15;;
42690;SDS011;28306;55.744;37.578;2022-08-05T14:56:55;5.30;;;4.47;;
42690;SDS011;28306;55.744;37.578;2022-08-05T14:59:21;7.13;;;4.43;;
42690;SDS011;28306;55.744;37.578;2022-08-05T15:01:46;5.97;;;3.95;;
42690;SDS011;28306;55.744;37.578;2022-08-05T15:04:12;5.63;;;4.63;;
42690;SDS011;28306;55.744;37.578;2022-08-05T15:07:03;5.03;;;4.43;;
42690;SDS011;28306;55.744;37.578;2022-08-05T15:09:29;6.55;;;4.25;;
42690;SDS011;28306;55.744;37.578;2022-08-05T15:11:55;5.78;;;4.05;;
42690;SDS011;28306;55.744;37.578;2022-08-05T15:14:21;5.95;;;4.18;;
42690;SDS011;28306;55.744;37.578;2022-08-05T15:16:47;7.53;;;4.47;;
42690;SDS011;28306;55.744;37.578;2022-08-05T15:19:13;6.45;;;4.13;;